sensor_id;sensor_type;location;lat;lon;timestamp;temperature;humidity
14877;DHT22;69691;48.172;17.070;2023-12-20T00:01:50;2.00;94.60
14877;DHT22;69691;48.172;17.070;2023-12-20T00:04:16;1.90;94.80
14877;DHT22;69691;48.172;17.070;2023-12-20T00:06:42;1.80;94.90
14877;DHT22;69691;48.172;17.070;2023-12-20T00:09:08;1.80;95.10
14877;DHT22;69691;48.172;17.070;2023-12-20T00:11:33;1.70;95.20
14877;DHT22;69691;48.172;17.070;2023-12-20T00:13:59;1.70;95.30
14877;DHT22;69691;48.172;17.070;2023-12-20T00:16:25;1.70;95.30
14877;DHT22;69691;48.172;17.070;2023-12-20T00:18:51;1.60;95.30
14877;DHT22;69691;48.172;17.070;2023-12-20T00:21:16;1.60;95.40
14877;DHT22;69691;48.172;17.070;2023-12-20T00:23:42;1.60;95.50
14877;DHT22;69691;48.172;17.070;2023-12-20T00:26:08;1.70;95.60
14877;DHT22;69691;48.172;17.070;2023-12-20T00:28:34;1.60;95.40
14877;DHT22;69691;48.172;17.070;2023-12-20T00:31:00;1.60;95.50
14877;DHT22;69691;48.172;17.070;2023-12-20T00:33:25;1.70;95.50
14877;DHT22;69691;48.172;17.070;2023-12-20T00:35:51;1.60;95.40
14877;DHT22;69691;48.172;17.070;2023-12-20T00:38:17;1.70;95.50
14877;DHT22;69691;48.172;17.070;2023-12-20T00:40:43;1.70;95.60
14877;DHT22;69691;48.172;17.070;2023-12-20T00:43:08;1.80;95.60
14877;DHT22;69691;48.172;17.070;2023-12-20T00:45:34;1.80;95.50
14877;DHT22;69691;48.172;17.070;2023-12-20T00:48:00;1.90;95.40
14877;DHT22;69691;48.172;17.070;2023-12-20T00:50:26;1.90;95.40
14877;DHT22;69691;48.172;17.070;2023-12-20T00:52:52;1.90;95.30
14877;DHT22;69691;48.172;17.070;2023-12-20T00:55:18;1.90;95.30
14877;DHT22;69691;48.172;17.070;2023-12-20T00:57:43;1.90;95.50
14877;DHT22;69691;48.172;17.070;2023-12-20T01:00:10;1.90;95.40
14877;DHT22;69691;48.172;17.070;2023-12-20T01:02:36;2.00;95.30
14877;DHT22;69691;48.172;17.070;2023-12-20T01:05:02;2.00;95.20
14877;DHT22;69691;48.172;17.070;2023-12-20T01:07:28;2.10;95.10
14877;DHT22;69691;48.172;17.070;2023-12-20T01:09:54;2.10;95.00
14877;DHT22;69691;48.172;17.070;2023-12-20T01:12:20;2.10;94.80
14877;DHT22;69691;48.172;17.070;2023-12-20T01:14:46;2.00;94.70
14877;DHT22;69691;48.172;17.070;2023-12-20T01:17:12;2.00;94.70
14877;DHT22;69691;48.172;17.070;2023-12-20T01:19:38;2.00;94.60
14877;DHT22;69691;48.172;17.070;2023-12-20T01:22:04;1.90;94.60
14877;DHT22;69691;48.172;17.070;2023-12-20T01:24:30;1.90;94.60
14877;DHT22;69691;48.172;17.070;2023-12-20T01:26:56;1.80;94.60
14877;DHT22;69691;48.172;17.070;2023-12-20T01:29:22;1.70;94.70
14877;DHT22;69691;48.172;17.070;2023-12-20T01:31:48;1.60;94.70
14877;DHT22;69691;48.172;17.070;2023-12-20T01:34:13;1.60;94.80
14877;DHT22;69691;48.172;17.070;2023-12-20T01:36:39;1.50;94.80
14877;DHT22;69691;48.172;17.070;2023-12-20T01:39:05;1.50;94.90
14877;DHT22;69691;48.172;17.070;2023-12-20T01:41:31;1.50;94.90
14877;DHT22;69691;48.172;17.070;2023-12-20T01:43:57;1.50;94.90
14877;DHT22;69691;48.172;17.070;2023-12-20T01:46:23;1.50;94.90
14877;DHT22;69691;48.172;17.070;2023-12-20T01:48:49;1.60;95.00
14877;DHT22;69691;48.172;17.070;2023-12-20T01:51:15;1.70;95.10
14877;DHT22;69691;48.172;17.070;2023-12-20T01:53:42;1.80;95.20
14877;DHT22;69691;48.172;17.070;2023-12-20T01:56:08;1.80;95.10
14877;DHT22;69691;48.172;17.070;2023-12-20T01:58:39;1.90;95.10
14877;DHT22;69691;48.172;17.070;2023-12-20T02:01:10;2.00;95.20
14877;DHT22;69691;48.172;17.070;2023-12-20T02:03:36;2.10;95.50
14877;DHT22;69691;48.172;17.070;2023-12-20T02:06:03;2.20;95.20
14877;DHT22;69691;48.172;17.070;2023-12-20T02:08:30;2.20;95.00
14877;DHT22;69691;48.172;17.070;2023-12-20T02:10:56;2.20;95.00
14877;DHT22;69691;48.172;17.070;2023-12-20T02:13:22;2.20;95.20
14877;DHT22;69691;48.172;17.070;2023-12-20T02:15:48;2.30;95.30
14877;DHT22;69691;48.172;17.070;2023-12-20T02:18:13;2.30;95.20
14877;DHT22;69691;48.172;17.070;2023-12-20T02:20:42;2.40;95.40
14877;DHT22;69691;48.172;17.070;2023-12-20T02:23:08;2.40;95.30
14877;DHT22;69691;48.172;17.070;2023-12-20T02:25:34;2.50;95.40
14877;DHT22;69691;48.172;17.070;2023-12-20T02:28:00;2.70;95.20
14877;DHT22;69691;48.172;17.070;2023-12-20T02:30:26;2.70;95.00
14877;DHT22;69691;48.172;17.070;2023-12-20T02:32:53;2.80;95.00
14877;DHT22;69691;48.172;17.070;2023-12-20T02:35:19;2.90;95.00
14877;DHT22;69691;48.172;17.070;2023-12-20T02:37:45;3.00;94.90
14877;DHT22;69691;48.172;17.070;2023-12-20T02:40:11;3.00;94.60
14877;DHT22;69691;48.172;17.070;2023-12-20T02:42:37;3.10;94.60
14877;DHT22;69691;48.172;17.070;2023-12-20T02:45:03;3.10;94.60
14877;DHT22;69691;48.172;17.070;2023-12-20T02:47:29;3.00;94.50
14877;DHT22;69691;48.172;17.070;2023-12-20T02:49:55;3.00;94.50
14877;DHT22;69691;48.172;17.070;2023-12-20T02:52:23;3.10;94.40
14877;DHT22;69691;48.172;17.070;2023-12-20T02:54:49;3.10;94.40
14877;DHT22;69691;48.172;17.070;2023-12-20T02:57:15;3.00;94.40
14877;DHT22;69691;48.172;17.070;2023-12-20T02:59:41;2.90;94.30
14877;DHT22;69691;48.172;17.070;2023-12-20T03:02:06;2.90;94.50
14877;DHT22;69691;48.172;17.070;2023-12-20T03:04:32;2.80;94.90
14877;DHT22;69691;48.172;17.070;2023-12-20T03:06:58;2.80;94.70
14877;DHT22;69691;48.172;17.070;2023-12-20T03:09:24;2.80;94.80
14877;DHT22;69691;48.172;17.070;2023-12-20T03:11:50;2.80;94.70
14877;DHT22;69691;48.172;17.070;2023-12-20T03:14:15;2.90;94.60
14877;DHT22;69691;48.172;17.070;2023-12-20T03:16:41;2.80;94.60
14877;DHT22;69691;48.172;17.070;2023-12-20T03:19:07;2.80;94.50
14877;DHT22;69691;48.172;17.070;2023-12-20T03:21:33;2.80;94.60
14877;DHT22;69691;48.172;17.070;2023-12-20T03:23:59;2.80;94.90
14877;DHT22;69691;48.172;17.070;2023-12-20T03:26:24;2.80;94.60
14877;DHT22;69691;48.172;17.070;2023-12-20T03:28:50;2.80;94.60
14877;DHT22;69691;48.172;17.070;2023-12-20T03:31:16;2.70;94.50
14877;DHT22;69691;48.172;17.070;2023-12-20T03:33:42;2.60;94.50
14877;DHT22;69691;48.172;17.070;2023-12-20T03:36:08;2.60;94.60
14877;DHT22;69691;48.172;17.070;2023-12-20T03:38:33;2.50;94.50
14877;DHT22;69691;48.172;17.070;2023-12-20T03:40:59;2.40;94.60
14877;DHT22;69691;48.172;17.070;2023-12-20T03:43:25;2.30;94.80
14877;DHT22;69691;48.172;17.070;2023-12-20T03:45:51;2.30;95.00
14877;DHT22;69691;48.172;17.070;2023-12-20T03:48:17;2.20;94.90
14877;DHT22;69691;48.172;17.070;2023-12-20T03:50:43;2.20;95.00
14877;DHT22;69691;48.172;17.070;2023-12-20T03:53:09;2.20;95.10
14877;DHT22;69691;48.172;17.070;2023-12-20T03:55:35;2.20;95.20
14877;DHT22;69691;48.172;17.070;2023-12-20T03:58:01;2.20;95.00
14877;DHT22;69691;48.172;17.070;2023-12-20T04:00:27;2.20;95.10
14877;DHT22;69691;48.172;17.070;2023-12-20T04:02:53;2.10;95.00
14877;DHT22;69691;48.172;17.070;2023-12-20T04:05:19;2.10;95.00
14877;DHT22;69691;48.172;17.070;2023-12-20T04:07:45;2.00;94.90
14877;DHT22;69691;48.172;17.070;2023-12-20T04:10:11;1.90;94.70
14877;DHT22;69691;48.172;17.070;2023-12-20T04:12:36;1.80;95.00
14877;DHT22;69691;48.172;17.070;2023-12-20T04:15:02;1.80;95.10
14877;DHT22;69691;48.172;17.070;2023-12-20T04:17:34;1.80;95.20
14877;DHT22;69691;48.172;17.070;2023-12-20T04:20:01;1.80;95.20
14877;DHT22;69691;48.172;17.070;2023-12-20T04:22:28;1.80;95.20
14877;DHT22;69691;48.172;17.070;2023-12-20T04:24:53;1.90;95.20
14877;DHT22;69691;48.172;17.070;2023-12-20T04:27:19;2.00;95.30
14877;DHT22;69691;48.172;17.070;2023-12-20T04:29:45;2.10;95.60
14877;DHT22;69691;48.172;17.070;2023-12-20T04:32:11;2.20;95.20
14877;DHT22;69691;48.172;17.070;2023-12-20T04:34:37;2.20;95.00
14877;DHT22;69691;48.172;17.070;2023-12-20T04:37:02;2.20;94.80
14877;DHT22;69691;48.172;17.070;2023-12-20T04:39:28;2.20;94.80
14877;DHT22;69691;48.172;17.070;2023-12-20T04:41:54;2.20;94.60
14877;DHT22;69691;48.172;17.070;2023-12-20T04:44:20;2.10;94.70
14877;DHT22;69691;48.172;17.070;2023-12-20T04:46:46;2.10;95.10
14877;DHT22;69691;48.172;17.070;2023-12-20T04:49:11;2.10;94.80
14877;DHT22;69691;48.172;17.070;2023-12-20T04:51:37;2.10;94.80
14877;DHT22;69691;48.172;17.070;2023-12-20T04:54:03;2.00;94.60
14877;DHT22;69691;48.172;17.070;2023-12-20T04:56:29;2.00;94.70
14877;DHT22;69691;48.172;17.070;2023-12-20T04:58:55;1.90;94.70
14877;DHT22;69691;48.172;17.070;2023-12-20T05:01:21;1.90;94.70
14877;DHT22;69691;48.172;17.070;2023-12-20T05:03:47;2.00;94.80
14877;DHT22;69691;48.172;17.070;2023-12-20T05:06:13;2.00;94.80
14877;DHT22;69691;48.172;17.070;2023-12-20T05:08:38;2.10;94.80
14877;DHT22;69691;48.172;17.070;2023-12-20T05:11:04;2.20;94.80
14877;DHT22;69691;48.172;17.070;2023-12-20T05:13:30;2.30;94.70
14877;DHT22;69691;48.172;17.070;2023-12-20T05:15:56;2.40;94.50
14877;DHT22;69691;48.172;17.070;2023-12-20T05:18:22;2.30;94.30
14877;DHT22;69691;48.172;17.070;2023-12-20T05:20:49;2.20;94.30
14877;DHT22;69691;48.172;17.070;2023-12-20T05:23:16;2.30;94.50
14877;DHT22;69691;48.172;17.070;2023-12-20T05:25:42;2.30;94.60
14877;DHT22;69691;48.172;17.070;2023-12-20T05:28:10;2.40;94.50
14877;DHT22;69691;48.172;17.070;2023-12-20T05:30:35;2.40;94.30
14877;DHT22;69691;48.172;17.070;2023-12-20T05:33:01;2.40;94.10
14877;DHT22;69691;48.172;17.070;2023-12-20T05:35:27;2.20;94.10
14877;DHT22;69691;48.172;17.070;2023-12-20T05:37:53;2.30;94.20
14877;DHT22;69691;48.172;17.070;2023-12-20T05:40:18;2.20;94.10
14877;DHT22;69691;48.172;17.070;2023-12-20T05:42:44;2.20;94.10
14877;DHT22;69691;48.172;17.070;2023-12-20T05:45:10;2.20;94.10
14877;DHT22;69691;48.172;17.070;2023-12-20T05:47:36;2.10;94.20
14877;DHT22;69691;48.172;17.070;2023-12-20T05:50:02;2.20;94.30
14877;DHT22;69691;48.172;17.070;2023-12-20T05:52:29;2.20;94.20
14877;DHT22;69691;48.172;17.070;2023-12-20T05:54:55;2.20;94.20
14877;DHT22;69691;48.172;17.070;2023-12-20T05:57:23;2.20;94.20
14877;DHT22;69691;48.172;17.070;2023-12-20T05:59:49;2.20;94.00
14877;DHT22;69691;48.172;17.070;2023-12-20T06:02:15;2.20;94.00
14877;DHT22;69691;48.172;17.070;2023-12-20T06:04:44;2.20;93.90
14877;DHT22;69691;48.172;17.070;2023-12-20T06:07:13;2.20;93.90
14877;DHT22;69691;48.172;17.070;2023-12-20T06:09:39;2.10;93.80
14877;DHT22;69691;48.172;17.070;2023-12-20T06:12:06;2.00;94.00
14877;DHT22;69691;48.172;17.070;2023-12-20T06:14:32;2.00;94.00
14877;DHT22;69691;48.172;17.070;2023-12-20T06:16:58;2.00;94.00
14877;DHT22;69691;48.172;17.070;2023-12-20T06:19:24;2.00;94.00
14877;DHT22;69691;48.172;17.070;2023-12-20T06:21:50;1.90;93.90
14877;DHT22;69691;48.172;17.070;2023-12-20T06:24:15;1.90;94.10
14877;DHT22;69691;48.172;17.070;2023-12-20T06:26:41;1.90;94.10
14877;DHT22;69691;48.172;17.070;2023-12-20T06:29:08;2.00;94.10
14877;DHT22;69691;48.172;17.070;2023-12-20T06:31:34;2.00;94.10
14877;DHT22;69691;48.172;17.070;2023-12-20T06:34:00;2.00;94.10
14877;DHT22;69691;48.172;17.070;2023-12-20T06:36:26;2.00;94.10
14877;DHT22;69691;48.172;17.070;2023-12-20T06:38:52;2.10;94.10
14877;DHT22;69691;48.172;17.070;2023-12-20T06:41:18;2.10;94.00
14877;DHT22;69691;48.172;17.070;2023-12-20T06:43:44;2.10;93.90
14877;DHT22;69691;48.172;17.070;2023-12-20T06:46:10;2.10;93.80
14877;DHT22;69691;48.172;17.070;2023-12-20T06:48:38;2.20;93.70
14877;DHT22;69691;48.172;17.070;2023-12-20T06:51:05;2.10;93.70
14877;DHT22;69691;48.172;17.070;2023-12-20T06:53:31;2.10;93.60
14877;DHT22;69691;48.172;17.070;2023-12-20T06:55:57;2.00;93.70
14877;DHT22;69691;48.172;17.070;2023-12-20T06:58:23;2.00;93.60
14877;DHT22;69691;48.172;17.070;2023-12-20T07:00:50;2.00;93.80
14877;DHT22;69691;48.172;17.070;2023-12-20T07:03:17;2.00;93.70
14877;DHT22;69691;48.172;17.070;2023-12-20T07:05:44;2.00;93.80
14877;DHT22;69691;48.172;17.070;2023-12-20T07:08:09;2.00;93.80
14877;DHT22;69691;48.172;17.070;2023-12-20T07:10:36;2.10;93.90
14877;DHT22;69691;48.172;17.070;2023-12-20T07:13:02;2.20;93.90
14877;DHT22;69691;48.172;17.070;2023-12-20T07:15:28;2.40;94.00
14877;DHT22;69691;48.172;17.070;2023-12-20T07:17:55;2.60;94.00
14877;DHT22;69691;48.172;17.070;2023-12-20T07:20:21;2.80;93.80
14877;DHT22;69691;48.172;17.070;2023-12-20T07:22:46;3.00;93.70
14877;DHT22;69691;48.172;17.070;2023-12-20T07:25:12;3.10;93.50
14877;DHT22;69691;48.172;17.070;2023-12-20T07:27:38;3.30;93.40
14877;DHT22;69691;48.172;17.070;2023-12-20T07:30:04;3.40;93.30
14877;DHT22;69691;48.172;17.070;2023-12-20T07:32:31;3.50;93.10
14877;DHT22;69691;48.172;17.070;2023-12-20T07:34:57;3.60;93.00
14877;DHT22;69691;48.172;17.070;2023-12-20T07:37:23;3.80;92.90
14877;DHT22;69691;48.172;17.070;2023-12-20T07:40:01;3.80;92.60
14877;DHT22;69691;48.172;17.070;2023-12-20T07:42:45;3.90;92.60
14877;DHT22;69691;48.172;17.070;2023-12-20T07:45:11;3.90;92.40
14877;DHT22;69691;48.172;17.070;2023-12-20T07:47:37;4.00;92.30
14877;DHT22;69691;48.172;17.070;2023-12-20T07:50:03;4.10;92.30
14877;DHT22;69691;48.172;17.070;2023-12-20T07:52:30;4.30;92.20
14877;DHT22;69691;48.172;17.070;2023-12-20T07:54:55;4.40;92.00
14877;DHT22;69691;48.172;17.070;2023-12-20T07:57:21;4.50;91.90
14877;DHT22;69691;48.172;17.070;2023-12-20T07:59:47;4.60;91.80
14877;DHT22;69691;48.172;17.070;2023-12-20T08:02:13;4.60;91.80
14877;DHT22;69691;48.172;17.070;2023-12-20T08:04:39;4.60;91.70
14877;DHT22;69691;48.172;17.070;2023-12-20T08:07:06;4.80;91.80
14877;DHT22;69691;48.172;17.070;2023-12-20T08:09:32;4.90;91.70
14877;DHT22;69691;48.172;17.070;2023-12-20T08:11:59;5.00;91.50
14877;DHT22;69691;48.172;17.070;2023-12-20T08:14:25;5.10;91.50
14877;DHT22;69691;48.172;17.070;2023-12-20T08:16:57;5.00;91.70
14877;DHT22;69691;48.172;17.070;2023-12-20T08:19:36;5.00;91.60
14877;DHT22;69691;48.172;17.070;2023-12-20T08:22:02;5.00;91.70
14877;DHT22;69691;48.172;17.070;2023-12-20T08:24:29;5.10;91.90
14877;DHT22;69691;48.172;17.070;2023-12-20T08:26:55;5.20;92.10
14877;DHT22;69691;48.172;17.070;2023-12-20T08:29:21;5.40;92.10
14877;DHT22;69691;48.172;17.070;2023-12-20T08:31:52;5.60;92.10
14877;DHT22;69691;48.172;17.070;2023-12-20T08:34:19;5.80;92.00
14877;DHT22;69691;48.172;17.070;2023-12-20T08:36:45;5.90;92.00
14877;DHT22;69691;48.172;17.070;2023-12-20T08:39:11;6.10;92.00
14877;DHT22;69691;48.172;17.070;2023-12-20T08:41:37;6.30;91.90
14877;DHT22;69691;48.172;17.070;2023-12-20T08:44:03;6.50;92.00
14877;DHT22;69691;48.172;17.070;2023-12-20T08:46:29;6.70;91.90
14877;DHT22;69691;48.172;17.070;2023-12-20T08:48:55;6.80;91.80
14877;DHT22;69691;48.172;17.070;2023-12-20T08:51:21;6.90;91.60
14877;DHT22;69691;48.172;17.070;2023-12-20T08:53:49;7.00;91.60
14877;DHT22;69691;48.172;17.070;2023-12-20T08:56:15;7.00;91.50
14877;DHT22;69691;48.172;17.070;2023-12-20T08:58:41;7.10;91.50
14877;DHT22;69691;48.172;17.070;2023-12-20T09:01:07;7.00;91.50
14877;DHT22;69691;48.172;17.070;2023-12-20T09:03:33;7.00;92.00
14877;DHT22;69691;48.172;17.070;2023-12-20T09:05:59;6.90;91.70
14877;DHT22;69691;48.172;17.070;2023-12-20T09:08:25;6.90;91.90
14877;DHT22;69691;48.172;17.070;2023-12-20T09:10:50;6.90;92.10
14877;DHT22;69691;48.172;17.070;2023-12-20T09:13:16;6.90;92.30
14877;DHT22;69691;48.172;17.070;2023-12-20T09:15:42;6.90;92.40
14877;DHT22;69691;48.172;17.070;2023-12-20T09:18:08;7.00;92.50
14877;DHT22;69691;48.172;17.070;2023-12-20T09:20:34;7.00;92.60
14877;DHT22;69691;48.172;17.070;2023-12-20T09:23:00;7.10;92.70
14877;DHT22;69691;48.172;17.070;2023-12-20T09:25:26;7.20;92.80
14877;DHT22;69691;48.172;17.070;2023-12-20T09:27:52;7.30;92.70
14877;DHT22;69691;48.172;17.070;2023-12-20T09:30:18;7.40;92.70
14877;DHT22;69691;48.172;17.070;2023-12-20T09:32:45;7.40;92.70
14877;DHT22;69691;48.172;17.070;2023-12-20T09:35:11;7.40;92.70
14877;DHT22;69691;48.172;17.070;2023-12-20T09:37:37;7.50;92.70
14877;DHT22;69691;48.172;17.070;2023-12-20T09:40:03;7.50;92.70
14877;DHT22;69691;48.172;17.070;2023-12-20T09:42:39;7.60;92.70
14877;DHT22;69691;48.172;17.070;2023-12-20T09:45:20;7.60;92.70
14877;DHT22;69691;48.172;17.070;2023-12-20T09:47:51;7.70;92.70
14877;DHT22;69691;48.172;17.070;2023-12-20T09:50:19;7.80;92.70
14877;DHT22;69691;48.172;17.070;2023-12-20T09:52:50;7.90;92.70
14877;DHT22;69691;48.172;17.070;2023-12-20T09:55:18;7.90;92.50
14877;DHT22;69691;48.172;17.070;2023-12-20T09:57:45;8.00;92.40
14877;DHT22;69691;48.172;17.070;2023-12-20T10:00:13;8.00;92.30
14877;DHT22;69691;48.172;17.070;2023-12-20T10:03:06;8.00;92.30
14877;DHT22;69691;48.172;17.070;2023-12-20T10:05:33;8.10;92.30
14877;DHT22;69691;48.172;17.070;2023-12-20T10:08:00;8.00;92.20
14877;DHT22;69691;48.172;17.070;2023-12-20T10:10:27;8.00;92.20
14877;DHT22;69691;48.172;17.070;2023-12-20T10:13:07;8.00;92.30
14877;DHT22;69691;48.172;17.070;2023-12-20T10:15:35;8.00;92.30
14877;DHT22;69691;48.172;17.070;2023-12-20T10:18:03;8.10;92.30
14877;DHT22;69691;48.172;17.070;2023-12-20T10:20:30;8.20;92.20
14877;DHT22;69691;48.172;17.070;2023-12-20T10:22:57;8.30;92.00
14877;DHT22;69691;48.172;17.070;2023-12-20T10:25:25;8.50;91.90
14877;DHT22;69691;48.172;17.070;2023-12-20T10:30:48;8.70;91.50
14877;DHT22;69691;48.172;17.070;2023-12-20T10:33:26;8.70;91.30
14877;DHT22;69691;48.172;17.070;2023-12-20T10:35:55;8.80;91.20
14877;DHT22;69691;48.172;17.070;2023-12-20T10:38:21;8.90;91.10
14877;DHT22;69691;48.172;17.070;2023-12-20T10:40:47;9.00;91.00
14877;DHT22;69691;48.172;17.070;2023-12-20T10:43:15;9.00;90.90
14877;DHT22;69691;48.172;17.070;2023-12-20T10:45:44;9.00;90.80
14877;DHT22;69691;48.172;17.070;2023-12-20T10:48:13;9.00;90.70
14877;DHT22;69691;48.172;17.070;2023-12-20T10:50:38;9.10;90.70
14877;DHT22;69691;48.172;17.070;2023-12-20T10:53:06;9.10;90.60
14877;DHT22;69691;48.172;17.070;2023-12-20T10:55:32;9.00;90.60
14877;DHT22;69691;48.172;17.070;2023-12-20T10:58:08;9.10;90.70
14877;DHT22;69691;48.172;17.070;2023-12-20T11:00:40;9.10;90.70
14877;DHT22;69691;48.172;17.070;2023-12-20T11:03:11;9.10;90.60
14877;DHT22;69691;48.172;17.070;2023-12-20T11:05:52;9.10;90.90
14877;DHT22;69691;48.172;17.070;2023-12-20T11:11:29;9.00;90.50
14877;DHT22;69691;48.172;17.070;2023-12-20T11:14:08;9.00;90.50
14877;DHT22;69691;48.172;17.070;2023-12-20T11:16:41;9.00;90.50
14877;DHT22;69691;48.172;17.070;2023-12-20T11:19:07;9.00;90.50
14877;DHT22;69691;48.172;17.070;2023-12-20T11:21:33;9.00;90.50
14877;DHT22;69691;48.172;17.070;2023-12-20T11:23:59;9.00;90.40
14877;DHT22;69691;48.172;17.070;2023-12-20T11:26:29;9.00;90.20
14877;DHT22;69691;48.172;17.070;2023-12-20T11:34:53;9.40;90.00
14877;DHT22;69691;48.172;17.070;2023-12-20T11:37:20;9.40;89.80
14877;DHT22;69691;48.172;17.070;2023-12-20T11:40:00;9.40;90.10
14877;DHT22;69691;48.172;17.070;2023-12-20T11:42:28;9.40;89.20
14877;DHT22;69691;48.172;17.070;2023-12-20T11:44:53;9.30;89.20
14877;DHT22;69691;48.172;17.070;2023-12-20T11:47:21;9.30;90.00
14877;DHT22;69691;48.172;17.070;2023-12-20T11:49:47;9.30;89.20
14877;DHT22;69691;48.172;17.070;2023-12-20T11:52:14;9.30;89.20
14877;DHT22;69691;48.172;17.070;2023-12-20T11:54:40;9.30;89.10
14877;DHT22;69691;48.172;17.070;2023-12-20T11:57:05;9.40;88.80
14877;DHT22;69691;48.172;17.070;2023-12-20T11:59:31;9.30;88.70
14877;DHT22;69691;48.172;17.070;2023-12-20T12:01:58;9.40;88.70
14877;DHT22;69691;48.172;17.070;2023-12-20T12:04:43;9.40;88.40
14877;DHT22;69691;48.172;17.070;2023-12-20T12:07:34;9.40;88.10
14877;DHT22;69691;48.172;17.070;2023-12-20T12:10:00;9.40;88.70
14877;DHT22;69691;48.172;17.070;2023-12-20T12:12:27;9.40;87.90
14877;DHT22;69691;48.172;17.070;2023-12-20T12:14:54;9.40;87.80
14877;DHT22;69691;48.172;17.070;2023-12-20T12:17:22;9.30;87.80
14877;DHT22;69691;48.172;17.070;2023-12-20T12:19:48;9.30;87.80
14877;DHT22;69691;48.172;17.070;2023-12-20T12:22:15;9.40;87.70
14877;DHT22;69691;48.172;17.070;2023-12-20T12:24:46;9.30;87.70
14877;DHT22;69691;48.172;17.070;2023-12-20T12:27:16;9.30;88.50
14877;DHT22;69691;48.172;17.070;2023-12-20T12:30:05;9.20;87.80
14877;DHT22;69691;48.172;17.070;2023-12-20T12:32:33;9.00;87.90
14877;DHT22;69691;48.172;17.070;2023-12-20T12:34:59;8.90;88.50
14877;DHT22;69691;48.172;17.070;2023-12-20T12:37:25;8.80;88.70
14877;DHT22;69691;48.172;17.070;2023-12-20T12:39:55;8.70;88.90
14877;DHT22;69691;48.172;17.070;2023-12-20T12:42:21;8.60;89.10
14877;DHT22;69691;48.172;17.070;2023-12-20T12:44:47;8.60;89.40
14877;DHT22;69691;48.172;17.070;2023-12-20T12:47:13;8.50;89.30
14877;DHT22;69691;48.172;17.070;2023-12-20T12:49:40;8.50;89.60
14877;DHT22;69691;48.172;17.070;2023-12-20T12:52:06;8.60;89.90
14877;DHT22;69691;48.172;17.070;2023-12-20T12:54:32;8.70;89.80
14877;DHT22;69691;48.172;17.070;2023-12-20T12:56:57;8.70;89.60
14877;DHT22;69691;48.172;17.070;2023-12-20T12:59:23;8.80;89.50
14877;DHT22;69691;48.172;17.070;2023-12-20T13:01:49;8.80;89.40
14877;DHT22;69691;48.172;17.070;2023-12-20T13:04:15;8.80;89.40
14877;DHT22;69691;48.172;17.070;2023-12-20T13:06:41;8.80;89.60
14877;DHT22;69691;48.172;17.070;2023-12-20T13:09:07;8.80;89.70
14877;DHT22;69691;48.172;17.070;2023-12-20T13:11:35;8.90;89.70
14877;DHT22;69691;48.172;17.070;2023-12-20T13:14:01;9.10;89.60
14877;DHT22;69691;48.172;17.070;2023-12-20T13:16:29;9.10;89.10
14877;DHT22;69691;48.172;17.070;2023-12-20T13:18:55;9.20;89.10
14877;DHT22;69691;48.172;17.070;2023-12-20T13:21:21;9.30;89.00
14877;DHT22;69691;48.172;17.070;2023-12-20T13:23:47;9.30;88.60
14877;DHT22;69691;48.172;17.070;2023-12-20T13:26:13;9.40;88.50
14877;DHT22;69691;48.172;17.070;2023-12-20T13:28:40;9.30;88.10
14877;DHT22;69691;48.172;17.070;2023-12-20T13:31:05;9.30;88.00
14877;DHT22;69691;48.172;17.070;2023-12-20T13:33:31;9.20;88.20
14877;DHT22;69691;48.172;17.070;2023-12-20T13:35:57;9.20;88.00
14877;DHT22;69691;48.172;17.070;2023-12-20T13:38:24;9.20;87.80
14877;DHT22;69691;48.172;17.070;2023-12-20T13:40:49;9.20;87.70
14877;DHT22;69691;48.172;17.070;2023-12-20T13:43:15;9.20;87.40
14877;DHT22;69691;48.172;17.070;2023-12-20T13:45:46;9.20;87.40
14877;DHT22;69691;48.172;17.070;2023-12-20T13:48:13;9.20;87.30
14877;DHT22;69691;48.172;17.070;2023-12-20T13:50:39;9.20;87.30
14877;DHT22;69691;48.172;17.070;2023-12-20T13:53:04;9.20;87.40
14877;DHT22;69691;48.172;17.070;2023-12-20T13:55:30;9.10;87.40
14877;DHT22;69691;48.172;17.070;2023-12-20T13:57:56;9.00;87.30
14877;DHT22;69691;48.172;17.070;2023-12-20T14:00:23;9.00;87.70
14877;DHT22;69691;48.172;17.070;2023-12-20T14:02:49;8.90;87.80
14877;DHT22;69691;48.172;17.070;2023-12-20T14:05:15;8.80;87.90
14877;DHT22;69691;48.172;17.070;2023-12-20T14:07:43;8.70;88.20
14877;DHT22;69691;48.172;17.070;2023-12-20T14:10:13;8.60;88.50
14877;DHT22;69691;48.172;17.070;2023-12-20T14:12:39;8.50;88.70
14877;DHT22;69691;48.172;17.070;2023-12-20T14:15:06;8.40;88.90
14877;DHT22;69691;48.172;17.070;2023-12-20T14:17:37;8.40;89.10
14877;DHT22;69691;48.172;17.070;2023-12-20T14:20:05;8.40;89.30
14877;DHT22;69691;48.172;17.070;2023-12-20T14:22:33;8.40;89.50
14877;DHT22;69691;48.172;17.070;2023-12-20T14:24:58;8.40;89.60
14877;DHT22;69691;48.172;17.070;2023-12-20T14:27:24;8.40;89.40
14877;DHT22;69691;48.172;17.070;2023-12-20T14:29:56;8.30;89.40
14877;DHT22;69691;48.172;17.070;2023-12-20T14:32:22;8.30;89.70
14877;DHT22;69691;48.172;17.070;2023-12-20T14:34:48;8.20;89.80
14877;DHT22;69691;48.172;17.070;2023-12-20T14:37:14;8.10;90.00
14877;DHT22;69691;48.172;17.070;2023-12-20T14:39:40;8.00;90.20
14877;DHT22;69691;48.172;17.070;2023-12-20T14:42:07;7.90;90.30
14877;DHT22;69691;48.172;17.070;2023-12-20T14:44:40;7.90;90.40
14877;DHT22;69691;48.172;17.070;2023-12-20T14:47:07;7.80;90.50
14877;DHT22;69691;48.172;17.070;2023-12-20T14:49:33;7.80;90.50
14877;DHT22;69691;48.172;17.070;2023-12-20T14:51:58;7.80;90.60
14877;DHT22;69691;48.172;17.070;2023-12-20T14:54:26;7.70;90.60
14877;DHT22;69691;48.172;17.070;2023-12-20T14:56:51;7.70;90.70
14877;DHT22;69691;48.172;17.070;2023-12-20T14:59:17;7.60;90.70
14877;DHT22;69691;48.172;17.070;2023-12-20T15:01:44;7.60;90.70
14877;DHT22;69691;48.172;17.070;2023-12-20T15:04:10;7.50;90.70
14877;DHT22;69691;48.172;17.070;2023-12-20T15:06:36;7.40;90.80
14877;DHT22;69691;48.172;17.070;2023-12-20T15:09:02;7.40;90.90
14877;DHT22;69691;48.172;17.070;2023-12-20T15:11:30;7.30;90.90
14877;DHT22;69691;48.172;17.070;2023-12-20T15:13:57;7.30;91.00
14877;DHT22;69691;48.172;17.070;2023-12-20T15:16:25;7.30;91.10
14877;DHT22;69691;48.172;17.070;2023-12-20T15:18:52;7.40;91.10
14877;DHT22;69691;48.172;17.070;2023-12-20T15:21:19;7.50;91.00
14877;DHT22;69691;48.172;17.070;2023-12-20T15:23:45;7.60;90.90
14877;DHT22;69691;48.172;17.070;2023-12-20T15:26:20;7.60;90.80
14877;DHT22;69691;48.172;17.070;2023-12-20T15:28:46;7.60;90.70
14877;DHT22;69691;48.172;17.070;2023-12-20T15:31:11;7.70;90.80
14877;DHT22;69691;48.172;17.070;2023-12-20T15:33:40;7.70;90.70
14877;DHT22;69691;48.172;17.070;2023-12-20T15:36:06;7.80;90.70
14877;DHT22;69691;48.172;17.070;2023-12-20T15:38:33;7.80;90.60
14877;DHT22;69691;48.172;17.070;2023-12-20T15:41:00;7.90;90.60